createdAt,value
2022-12-02T00:00:18.884Z,0.00
2022-12-02T00:01:18.855Z,0.00
2022-12-02T00:02:18.857Z,0.00
2022-12-02T00:03:18.965Z,0.00
2022-12-02T00:04:18.925Z,0.00
2022-12-02T00:05:18.796Z,0.00
2022-12-02T00:06:18.785Z,0.00
2022-12-02T00:08:29.982Z,0.00
2022-12-02T00:09:29.970Z,0.00
2022-12-02T00:10:29.959Z,0.00
2022-12-02T00:11:29.954Z,0.00
2022-12-02T00:12:29.991Z,0.00
2022-12-02T00:13:29.918Z,0.00
2022-12-02T00:14:29.914Z,0.00
2022-12-02T00:15:29.914Z,0.00
2022-12-02T00:16:29.982Z,0.00
2022-12-02T00:17:29.920Z,0.00
2022-12-02T00:18:29.879Z,0.00
2022-12-02T00:19:29.860Z,0.00
2022-12-02T00:20:29.862Z,0.00
2022-12-02T00:21:29.834Z,0.00
2022-12-02T00:23:41.106Z,0.00
2022-12-02T00:24:41.048Z,0.00
2022-12-02T00:25:41.015Z,0.00
2022-12-02T00:26:41.007Z,0.00
2022-12-02T00:27:41.028Z,0.00
2022-12-02T00:28:41.010Z,0.00
2022-12-02T00:29:41.339Z,0.00
2022-12-02T00:30:40.974Z,0.00
2022-12-02T00:31:41.050Z,0.00
2022-12-02T00:32:40.950Z,0.00
2022-12-02T00:33:40.934Z,0.00
2022-12-02T00:34:40.943Z,0.00
2022-12-02T00:35:40.906Z,0.00
2022-12-02T00:36:40.911Z,0.00
2022-12-02T00:37:40.905Z,0.00
2022-12-02T00:38:40.900Z,0.00
2022-12-02T00:39:40.872Z,0.00
2022-12-02T00:40:40.857Z,0.00
2022-12-02T00:41:40.839Z,0.00
2022-12-02T00:42:40.873Z,0.00
2022-12-02T00:43:40.841Z,0.00
2022-12-02T00:44:40.803Z,0.00
2022-12-02T00:45:40.891Z,0.00
2022-12-02T00:47:53.037Z,0.00
2022-12-02T00:48:53.019Z,0.00
2022-12-02T00:49:53.020Z,0.00
2022-12-02T00:50:52.977Z,0.00
2022-12-02T00:51:52.967Z,0.00
2022-12-02T00:52:52.997Z,0.00
2022-12-02T00:53:52.983Z,0.00
2022-12-02T00:54:53.184Z,0.00
2022-12-02T00:55:52.928Z,0.00
2022-12-02T00:56:52.925Z,0.00
2022-12-02T00:57:52.922Z,0.00
2022-12-02T00:58:52.916Z,0.00
2022-12-02T00:59:52.909Z,0.00
2022-12-02T01:00:52.999Z,0.00
2022-12-02T01:01:52.969Z,0.00
2022-12-02T01:02:52.871Z,0.00
2022-12-02T01:03:52.868Z,0.00
2022-12-02T01:04:53.220Z,0.00
2022-12-02T01:05:52.880Z,0.00
2022-12-02T01:06:52.802Z,0.00
2022-12-02T01:07:52.860Z,0.00
2022-12-02T01:08:52.801Z,0.00
2022-12-02T01:09:52.791Z,0.00
2022-12-02T01:10:52.764Z,0.00
2022-12-02T01:11:52.761Z,0.00
2022-12-02T01:12:52.765Z,0.00
2022-12-02T01:13:52.748Z,0.00
2022-12-02T01:14:53.046Z,0.00
2022-12-02T01:15:52.723Z,0.00
2022-12-02T01:16:52.887Z,0.00
2022-12-02T01:17:52.718Z,0.00
2022-12-02T01:18:52.701Z,0.00
2022-12-02T01:19:52.707Z,0.00
2022-12-02T01:20:52.664Z,0.00
2022-12-02T01:21:52.691Z,0.00
2022-12-02T01:22:52.673Z,0.00
2022-12-02T01:23:52.642Z,0.00
2022-12-02T01:24:53.065Z,0.00
2022-12-02T01:25:52.603Z,0.00
2022-12-02T01:26:52.591Z,0.00
2022-12-02T01:27:52.618Z,0.00
2022-12-02T01:28:52.574Z,0.00
2022-12-02T01:29:52.559Z,0.00
2022-12-02T01:30:52.555Z,0.00
2022-12-02T01:31:52.619Z,0.00
2022-12-02T01:32:52.543Z,0.00
2022-12-02T01:33:52.539Z,0.00
2022-12-02T01:34:52.818Z,0.00
2022-12-02T01:35:52.509Z,0.00
2022-12-02T01:36:52.492Z,0.00
2022-12-02T01:37:52.470Z,0.00
2022-12-02T01:38:52.519Z,0.00
2022-12-02T01:39:52.448Z,0.00
2022-12-02T01:40:52.467Z,0.00
2022-12-02T01:41:52.434Z,0.00
2022-12-02T01:42:52.427Z,0.00
2022-12-02T01:43:52.457Z,0.00
2022-12-02T01:44:52.699Z,0.00
2022-12-02T01:45:52.404Z,0.00
2022-12-02T01:46:52.395Z,0.00
2022-12-02T01:47:52.369Z,0.00
2022-12-02T01:50:04.833Z,0.00
2022-12-02T01:51:04.559Z,0.00
2022-12-02T01:52:04.534Z,0.00
2022-12-02T01:53:04.550Z,0.00
2022-12-02T01:54:04.560Z,0.00
2022-12-02T01:55:04.504Z,0.00
2022-12-02T01:56:04.490Z,0.00
2022-12-02T01:57:04.490Z,0.00
2022-12-02T01:58:04.500Z,0.00
2022-12-02T01:59:04.474Z,0.00
2022-12-02T02:00:04.559Z,0.00
2022-12-02T02:01:04.493Z,0.00
2022-12-02T02:02:04.517Z,0.00
2022-12-02T02:03:04.435Z,0.00
2022-12-02T02:04:04.424Z,0.00
2022-12-02T02:05:04.407Z,0.00
2022-12-02T02:06:04.381Z,0.00
2022-12-02T02:07:04.384Z,0.00
2022-12-02T02:08:04.499Z,0.00
2022-12-02T02:09:04.405Z,0.00
2022-12-02T02:10:04.352Z,0.00
2022-12-02T02:11:04.374Z,0.00
2022-12-02T02:12:04.359Z,0.00
2022-12-02T02:14:15.556Z,0.00
2022-12-02T02:15:15.531Z,0.00
2022-12-02T02:17:27.809Z,0.00
2022-12-02T02:18:27.789Z,0.00
2022-12-02T02:19:27.789Z,0.00
2022-12-02T02:20:27.776Z,0.00
2022-12-02T02:21:28.025Z,0.00
2022-12-02T02:22:27.737Z,0.00
2022-12-02T02:24:39.986Z,0.00
2022-12-02T02:26:52.219Z,0.00
2022-12-02T02:27:52.150Z,0.00
2022-12-02T02:28:52.157Z,0.00
2022-12-02T02:29:52.120Z,0.00
2022-12-02T02:30:52.164Z,0.00
2022-12-02T02:31:52.136Z,0.00
2022-12-02T02:32:52.125Z,0.00
2022-12-02T02:33:52.149Z,0.00
2022-12-02T02:34:52.541Z,0.00
2022-12-02T02:35:52.076Z,0.00
2022-12-02T02:36:52.055Z,0.00
2022-12-02T02:39:02.974Z,0.00
2022-12-02T02:40:02.938Z,0.00
2022-12-02T02:41:02.910Z,0.00
2022-12-02T02:42:02.926Z,0.00
2022-12-02T02:43:02.883Z,0.00
2022-12-02T02:44:02.908Z,0.00
2022-12-02T02:46:25.614Z,0.00
2022-12-02T02:47:25.554Z,0.00
2022-12-02T02:48:25.542Z,0.00
2022-12-02T02:49:25.560Z,0.00
2022-12-02T02:50:25.531Z,0.00
2022-12-02T02:51:25.531Z,0.00
2022-12-02T02:52:25.551Z,0.00
2022-12-02T02:53:25.490Z,0.00
2022-12-02T02:54:25.524Z,0.00
2022-12-02T02:55:25.471Z,0.00
2022-12-02T02:56:25.577Z,0.00
2022-12-02T02:57:25.457Z,0.00
2022-12-02T02:58:25.439Z,0.00
2022-12-02T02:59:25.425Z,0.00
2022-12-02T03:00:25.446Z,0.00
2022-12-02T03:01:25.519Z,0.00
2022-12-02T03:02:25.436Z,0.00
2022-12-02T03:03:33.443Z,0.00
2022-12-02T03:04:25.392Z,0.00
2022-12-02T03:05:25.376Z,0.00
2022-12-02T03:06:25.337Z,0.00
2022-12-02T03:07:25.351Z,0.00
2022-12-02T03:08:25.348Z,0.00
2022-12-02T03:09:25.387Z,0.00
2022-12-02T03:10:25.345Z,0.00
2022-12-02T03:11:25.288Z,0.00
2022-12-02T03:12:25.273Z,0.00
2022-12-02T03:13:25.271Z,0.00
2022-12-02T03:14:25.249Z,0.00
2022-12-02T03:15:25.263Z,0.00
2022-12-02T03:16:25.244Z,0.00
2022-12-02T03:17:25.216Z,0.00
2022-12-02T03:18:25.214Z,0.00
2022-12-02T03:19:25.218Z,0.00
2022-12-02T03:20:25.190Z,0.00
2022-12-02T03:21:25.198Z,0.00
2022-12-02T03:22:25.160Z,0.00
2022-12-02T03:23:25.151Z,0.00
2022-12-02T03:24:25.137Z,0.00
2022-12-02T03:25:25.137Z,0.00
2022-12-02T03:26:25.155Z,0.00
2022-12-02T03:27:25.114Z,0.00
2022-12-02T03:28:25.096Z,0.00
2022-12-02T03:29:25.135Z,0.00
2022-12-02T03:30:25.112Z,0.00
2022-12-02T03:31:25.216Z,0.00
2022-12-02T03:32:25.107Z,0.00
2022-12-02T03:33:25.060Z,0.00
2022-12-02T03:34:25.051Z,0.00
2022-12-02T03:35:25.064Z,0.00
2022-12-02T03:36:25.016Z,0.00
2022-12-02T03:37:24.998Z,0.00
2022-12-02T03:38:24.981Z,0.00
2022-12-02T03:39:24.993Z,0.00
2022-12-02T03:40:24.963Z,0.00
2022-12-02T03:41:24.956Z,0.00
2022-12-02T03:42:24.954Z,0.00
2022-12-02T03:43:24.940Z,0.00
2022-12-02T03:44:24.963Z,0.00
2022-12-02T03:45:24.903Z,0.00
2022-12-02T03:46:24.951Z,0.00
2022-12-02T03:47:24.884Z,0.00
2022-12-02T03:48:24.871Z,0.00
2022-12-02T03:49:24.884Z,0.00
2022-12-02T03:50:24.848Z,0.00
2022-12-02T03:51:24.838Z,0.00
2022-12-02T03:52:24.981Z,0.00
2022-12-02T03:53:24.845Z,0.00
2022-12-02T03:54:24.874Z,0.00
2022-12-02T03:55:24.796Z,0.00
2022-12-02T03:56:24.798Z,0.00
2022-12-02T03:57:24.774Z,0.00
2022-12-02T03:58:24.776Z,0.00
2022-12-02T03:59:24.753Z,0.00
2022-12-02T04:00:24.758Z,0.00
2022-12-02T04:01:24.817Z,0.00
2022-12-02T04:02:24.851Z,0.00
2022-12-02T04:03:24.817Z,0.00
2022-12-02T04:04:24.723Z,0.00
2022-12-02T04:05:24.721Z,0.00
2022-12-02T04:06:24.680Z,0.00
2022-12-02T04:07:24.688Z,0.00
2022-12-02T04:08:24.671Z,0.00
2022-12-02T04:09:24.643Z,0.00
2022-12-02T04:10:24.638Z,0.00
2022-12-02T04:11:24.643Z,0.00
2022-12-02T04:12:24.630Z,0.00
2022-12-02T04:13:24.613Z,0.00
2022-12-02T04:14:24.602Z,0.00
2022-12-02T04:15:24.575Z,0.00
2022-12-02T04:16:24.645Z,0.00
2022-12-02T04:17:24.551Z,0.00
2022-12-02T04:18:24.567Z,0.00
2022-12-02T04:19:24.554Z,0.00
2022-12-02T04:20:24.516Z,0.00
2022-12-02T04:21:24.501Z,0.00
2022-12-02T04:22:24.503Z,0.00
2022-12-02T04:23:24.500Z,0.00
2022-12-02T04:24:24.481Z,0.00
2022-12-02T04:25:24.512Z,0.00
2022-12-02T04:26:24.452Z,0.00
2022-12-02T04:27:24.447Z,0.00
2022-12-02T04:28:24.477Z,0.00
2022-12-02T04:29:24.437Z,0.00
2022-12-02T04:30:24.422Z,0.00
2022-12-02T04:31:24.520Z,0.00
2022-12-02T04:32:24.385Z,0.00
2022-12-02T04:33:24.399Z,0.00
2022-12-02T04:34:24.383Z,0.00
2022-12-02T04:35:24.362Z,0.00
2022-12-02T04:36:24.333Z,0.00
2022-12-02T04:37:24.331Z,0.00
2022-12-02T04:38:24.310Z,0.00
2022-12-02T04:39:24.328Z,0.00
2022-12-02T04:40:24.293Z,0.00
2022-12-02T04:41:24.307Z,0.00
2022-12-02T04:42:24.268Z,0.00
2022-12-02T04:43:24.258Z,0.00
2022-12-02T04:44:24.278Z,0.00
2022-12-02T04:45:24.244Z,0.00
2022-12-02T04:46:24.352Z,0.00
2022-12-02T04:47:24.240Z,0.00
2022-12-02T04:48:24.291Z,0.00
2022-12-02T04:49:24.200Z,0.00
2022-12-02T04:50:24.341Z,0.00
2022-12-02T04:51:24.177Z,0.00
2022-12-02T04:52:24.183Z,0.00
2022-12-02T04:53:24.147Z,0.00
2022-12-02T04:54:24.131Z,0.00
2022-12-02T04:55:24.164Z,0.00
2022-12-02T04:56:24.108Z,0.00
2022-12-02T04:57:29.574Z,0.00
2022-12-02T04:58:25.087Z,0.00
2022-12-02T04:59:24.183Z,0.00
2022-12-02T05:00:24.065Z,0.00
2022-12-02T05:01:24.053Z,0.00
2022-12-02T05:02:24.086Z,0.00
2022-12-02T05:03:24.109Z,0.00
2022-12-02T05:04:24.119Z,0.00
2022-12-02T05:05:24.012Z,0.00
2022-12-02T05:06:23.999Z,0.00
2022-12-02T05:07:24.106Z,0.00
2022-12-02T05:08:23.997Z,0.00
2022-12-02T05:09:23.991Z,0.00
2022-12-02T05:10:23.953Z,0.00
2022-12-02T05:11:23.947Z,0.00
2022-12-02T05:12:23.934Z,0.00
2022-12-02T05:13:23.956Z,0.00
2022-12-02T05:14:23.912Z,0.00
2022-12-02T05:15:23.920Z,0.00
2022-12-02T05:16:23.938Z,0.00
2022-12-02T05:17:23.881Z,0.00
2022-12-02T05:18:23.922Z,0.00
2022-12-02T05:19:23.861Z,0.00
2022-12-02T05:20:23.891Z,0.00
2022-12-02T05:21:23.830Z,0.00
2022-12-02T05:22:23.862Z,0.00
2022-12-02T05:23:23.821Z,0.00
2022-12-02T05:24:23.796Z,0.00
2022-12-02T05:25:23.794Z,0.00
2022-12-02T05:26:23.809Z,0.00
2022-12-02T05:27:23.769Z,0.00
2022-12-02T05:28:23.749Z,0.00
2022-12-02T05:29:23.754Z,0.00
2022-12-02T05:30:23.730Z,0.00
2022-12-02T05:31:23.807Z,0.00
2022-12-02T05:32:23.711Z,0.00
2022-12-02T05:33:23.699Z,0.00
2022-12-02T05:34:23.721Z,0.00
2022-12-02T05:35:23.689Z,0.00
2022-12-02T05:36:23.689Z,0.00
2022-12-02T05:37:23.659Z,0.00
2022-12-02T05:38:23.641Z,0.00
2022-12-02T05:39:23.635Z,0.00
2022-12-02T05:40:23.626Z,0.00
2022-12-02T05:41:23.634Z,0.00
2022-12-02T05:42:23.617Z,0.00
2022-12-02T05:43:23.601Z,0.00
2022-12-02T05:44:23.574Z,0.00
2022-12-02T05:45:23.608Z,0.00
2022-12-02T05:46:23.674Z,0.00
2022-12-02T05:47:23.551Z,0.00
2022-12-02T05:48:23.535Z,0.00
2022-12-02T05:49:23.524Z,0.00
2022-12-02T05:50:23.530Z,0.00
2022-12-02T05:51:23.522Z,0.00
2022-12-02T05:52:23.509Z,0.00
2022-12-02T05:53:23.491Z,0.00
2022-12-02T05:54:23.489Z,0.00
2022-12-02T05:55:23.476Z,0.00
2022-12-02T05:56:23.463Z,0.00
2022-12-02T05:57:27.675Z,0.00
2022-12-02T05:58:23.422Z,0.00
2022-12-02T05:59:23.418Z,0.00
2022-12-02T06:00:23.414Z,0.00
2022-12-02T06:01:23.396Z,0.00
2022-12-02T06:02:23.517Z,0.00
2022-12-02T06:03:23.576Z,0.00
2022-12-02T06:04:23.350Z,0.00
2022-12-02T06:05:23.346Z,0.00
2022-12-02T06:06:23.381Z,0.00
2022-12-02T06:07:23.379Z,0.00
2022-12-02T06:08:23.305Z,0.00
2022-12-02T06:09:23.299Z,0.00
2022-12-02T06:10:23.306Z,0.00
2022-12-02T06:11:23.277Z,0.00
2022-12-02T06:12:23.282Z,0.00
2022-12-02T06:13:23.273Z,0.00
2022-12-02T06:14:23.262Z,0.00
2022-12-02T06:15:23.237Z,0.00
2022-12-02T06:16:23.342Z,0.00
2022-12-02T06:17:23.215Z,0.00
2022-12-02T06:18:23.219Z,0.00
2022-12-02T06:19:23.192Z,0.00
2022-12-02T06:20:23.175Z,0.00
2022-12-02T06:21:23.162Z,0.00
2022-12-02T06:22:23.174Z,0.00
2022-12-02T06:23:23.169Z,0.00
2022-12-02T06:24:23.128Z,0.00
2022-12-02T06:25:23.149Z,0.00
2022-12-02T06:26:23.105Z,0.00
2022-12-02T06:27:23.104Z,0.00
2022-12-02T06:28:23.084Z,0.00
2022-12-02T06:29:23.106Z,0.00
2022-12-02T06:30:23.092Z,0.00
2022-12-02T06:31:23.131Z,0.00
2022-12-02T06:32:23.049Z,0.00
2022-12-02T06:33:23.138Z,0.00
2022-12-02T06:34:23.038Z,0.00
2022-12-02T06:35:23.047Z,0.00
2022-12-02T06:36:22.998Z,0.00
2022-12-02T06:37:22.994Z,0.00
2022-12-02T06:38:22.987Z,0.00
2022-12-02T06:39:22.967Z,0.00
2022-12-02T06:40:30.263Z,0.00
2022-12-02T06:41:23.948Z,0.00
2022-12-02T06:42:22.932Z,0.00
2022-12-02T06:43:22.952Z,0.00
2022-12-02T06:44:22.907Z,0.00
2022-12-02T06:45:28.933Z,0.00
2022-12-02T06:46:23.952Z,0.00
2022-12-02T06:47:22.877Z,0.00
2022-12-02T06:48:22.895Z,0.00
2022-12-02T06:49:22.856Z,0.00
2022-12-02T06:50:22.858Z,0.00
2022-12-02T06:51:22.857Z,0.00
2022-12-02T06:52:22.818Z,0.00
2022-12-02T06:53:22.891Z,0.00
2022-12-02T06:54:22.819Z,0.00
2022-12-02T06:55:22.796Z,0.00
2022-12-02T06:56:22.782Z,0.00
2022-12-02T06:57:22.763Z,0.00
2022-12-02T06:58:22.887Z,0.00
2022-12-02T06:59:22.756Z,0.00
2022-12-02T07:00:22.724Z,0.00
2022-12-02T07:01:22.785Z,0.00
2022-12-02T07:02:22.755Z,0.00
2022-12-02T07:03:22.714Z,0.00
2022-12-02T07:04:22.712Z,0.00
2022-12-02T07:05:22.679Z,0.00
2022-12-02T07:06:22.696Z,0.00
2022-12-02T07:07:22.775Z,0.00
2022-12-02T07:08:22.657Z,0.00
2022-12-02T07:09:22.690Z,0.00
2022-12-02T07:10:22.632Z,0.00
2022-12-02T07:11:22.627Z,0.00
2022-12-02T07:12:22.624Z,0.00
2022-12-02T07:13:22.582Z,0.00
2022-12-02T07:14:22.576Z,0.00
2022-12-02T07:15:22.562Z,0.00
2022-12-02T07:16:22.628Z,0.00
2022-12-02T07:17:22.566Z,0.00
2022-12-02T07:18:22.525Z,0.00
2022-12-02T07:19:22.535Z,0.00
2022-12-02T07:20:22.512Z,0.00
2022-12-02T07:21:22.490Z,0.00
2022-12-02T07:22:22.486Z,0.00
2022-12-02T07:23:22.474Z,0.00
2022-12-02T07:24:22.491Z,0.00
2022-12-02T07:25:22.447Z,0.00
2022-12-02T07:26:22.458Z,5.62
2022-12-02T07:27:22.448Z,5.62
2022-12-02T07:28:22.417Z,5.62
2022-12-02T07:29:22.413Z,5.62
2022-12-02T07:30:22.458Z,5.62
2022-12-02T07:31:22.488Z,5.62
2022-12-02T07:32:22.422Z,5.62
2022-12-02T07:33:22.363Z,5.62
2022-12-02T07:34:22.349Z,5.62
2022-12-02T07:35:22.357Z,5.62
2022-12-02T07:36:22.332Z,5.62
2022-12-02T07:37:22.336Z,5.62
2022-12-02T07:38:42.771Z,5.62
2022-12-02T07:39:23.294Z,5.62
2022-12-02T07:40:22.305Z,5.62
2022-12-02T07:41:22.273Z,5.62
2022-12-02T07:42:22.320Z,11.25
2022-12-02T07:43:22.250Z,11.25
2022-12-02T07:44:22.264Z,11.25
2022-12-02T07:45:22.220Z,11.25
2022-12-02T07:46:22.330Z,11.25
2022-12-02T07:47:22.202Z,11.25
2022-12-02T07:48:22.201Z,11.25
2022-12-02T07:49:22.199Z,11.25
2022-12-02T07:50:22.175Z,11.25
2022-12-02T07:51:22.196Z,11.25
2022-12-02T07:52:22.170Z,16.88
2022-12-02T07:53:22.158Z,16.88
2022-12-02T07:54:22.157Z,16.88
2022-12-02T07:55:26.337Z,16.88
2022-12-02T07:56:22.104Z,16.88
2022-12-02T07:57:22.095Z,16.88
2022-12-02T07:58:22.103Z,16.88
2022-12-02T07:59:22.073Z,16.88
2022-12-02T08:00:22.089Z,16.88
2022-12-02T08:01:22.133Z,22.50
2022-12-02T08:02:22.042Z,22.50
2022-12-02T08:03:22.029Z,22.50
2022-12-02T08:04:22.087Z,22.50
2022-12-02T08:05:22.048Z,22.50
2022-12-02T08:06:22.006Z,22.50
2022-12-02T08:07:22.171Z,22.50
2022-12-02T08:08:21.975Z,22.50
2022-12-02T08:09:21.964Z,22.50
2022-12-02T08:10:21.964Z,22.50
2022-12-02T08:11:22.067Z,22.50
2022-12-02T08:12:21.943Z,28.12
2022-12-02T08:13:21.911Z,28.12
2022-12-02T08:14:21.936Z,28.12
2022-12-02T08:15:21.903Z,28.12
2022-12-02T08:16:21.933Z,28.12
2022-12-02T08:17:21.873Z,28.12
2022-12-02T08:18:21.861Z,33.75
2022-12-02T08:19:21.887Z,33.75
2022-12-02T08:20:21.863Z,33.75
2022-12-02T08:21:21.848Z,33.75
2022-12-02T08:22:21.818Z,33.75
2022-12-02T08:23:21.798Z,33.75
2022-12-02T08:24:21.817Z,39.38
2022-12-02T08:25:21.795Z,39.38
2022-12-02T08:26:21.777Z,39.38
2022-12-02T08:27:21.755Z,33.75
2022-12-02T08:28:21.751Z,33.75
2022-12-02T08:29:21.783Z,33.75
2022-12-02T08:30:21.765Z,33.75
2022-12-02T08:31:21.824Z,39.38
2022-12-02T08:32:21.721Z,33.75
2022-12-02T08:33:21.689Z,39.38
2022-12-02T08:34:21.684Z,33.75
2022-12-02T08:35:21.714Z,33.75
2022-12-02T08:36:21.665Z,33.75
2022-12-02T08:37:21.645Z,39.38
2022-12-02T08:38:21.640Z,39.38
2022-12-02T08:39:21.627Z,39.38
2022-12-02T08:40:21.646Z,39.38
2022-12-02T08:41:21.627Z,39.38
2022-12-02T08:42:21.641Z,45.00
2022-12-02T08:43:21.594Z,45.00
2022-12-02T08:44:21.566Z,45.00
2022-12-02T08:45:21.574Z,50.62
2022-12-02T08:46:21.631Z,50.62
2022-12-02T08:47:21.531Z,50.62
2022-12-02T08:48:21.520Z,50.62
2022-12-02T08:49:21.519Z,50.62
2022-12-02T08:50:21.539Z,56.25
2022-12-02T08:51:21.497Z,56.25
2022-12-02T08:52:21.510Z,56.25
2022-12-02T08:53:21.496Z,56.25
2022-12-02T08:54:21.455Z,56.25
2022-12-02T08:55:21.465Z,50.62
2022-12-02T08:56:21.444Z,50.62
2022-12-02T08:57:21.444Z,50.62
2022-12-02T08:58:21.409Z,56.25
2022-12-02T08:59:21.426Z,56.25
2022-12-02T09:00:21.394Z,56.25
2022-12-02T09:01:21.549Z,56.25
2022-12-02T09:02:21.452Z,56.25
2022-12-02T09:03:21.368Z,56.25
2022-12-02T09:04:21.375Z,56.25
2022-12-02T09:05:21.430Z,56.25
2022-12-02T09:06:21.326Z,61.88
2022-12-02T09:07:21.311Z,61.88
2022-12-02T09:08:21.301Z,67.50
2022-12-02T09:09:21.290Z,73.12
2022-12-02T09:10:21.345Z,73.12
2022-12-02T09:11:21.290Z,78.75
2022-12-02T09:12:21.253Z,78.75
2022-12-02T09:13:21.248Z,84.38
2022-12-02T09:14:21.262Z,84.38
2022-12-02T09:15:21.223Z,84.38
2022-12-02T09:16:21.247Z,84.38
2022-12-02T09:17:21.199Z,90.00
2022-12-02T09:18:21.214Z,95.62
2022-12-02T09:19:21.236Z,101.25
2022-12-02T09:20:21.185Z,106.88
2022-12-02T09:21:21.154Z,112.50
2022-12-02T09:22:21.143Z,118.12
2022-12-02T09:23:21.134Z,123.75
2022-12-02T09:24:21.234Z,123.75
2022-12-02T09:25:21.117Z,118.12
2022-12-02T09:26:21.102Z,118.12
2022-12-02T09:27:21.087Z,118.12
2022-12-02T09:28:21.078Z,112.50
2022-12-02T09:29:21.075Z,112.50
2022-12-02T09:30:21.076Z,106.88
2022-12-02T09:31:21.130Z,106.88
2022-12-02T09:32:21.032Z,106.88
2022-12-02T09:33:21.040Z,101.25
2022-12-02T09:34:21.121Z,95.62
2022-12-02T09:35:21.017Z,101.25
2022-12-02T09:36:21.021Z,101.25
2022-12-02T09:37:20.969Z,95.62
2022-12-02T09:38:20.962Z,90.00
2022-12-02T09:39:20.952Z,84.38
2022-12-02T09:40:21.160Z,78.75
2022-12-02T09:41:20.928Z,78.75
2022-12-02T09:42:20.919Z,73.12
2022-12-02T09:43:20.905Z,73.12
2022-12-02T09:44:20.937Z,73.12
2022-12-02T09:45:20.883Z,73.12
2022-12-02T09:46:24.577Z,78.75
2022-12-02T09:47:20.864Z,78.75
2022-12-02T09:48:20.867Z,78.75
2022-12-02T09:49:20.839Z,78.75
2022-12-02T09:50:20.982Z,78.75
2022-12-02T09:51:20.843Z,78.75
2022-12-02T09:52:25.549Z,78.75
2022-12-02T09:53:21.808Z,73.12
2022-12-02T09:54:20.789Z,73.12
2022-12-02T09:55:20.835Z,73.12
2022-12-02T09:56:20.772Z,73.12
2022-12-02T09:57:20.785Z,67.50
2022-12-02T09:58:20.740Z,67.50
2022-12-02T09:59:20.734Z,73.12
2022-12-02T10:00:20.874Z,78.75
2022-12-02T10:01:20.793Z,78.75
2022-12-02T10:02:20.745Z,84.38
2022-12-02T10:03:20.775Z,84.38
2022-12-02T10:04:20.674Z,84.38
2022-12-02T10:05:20.705Z,84.38
2022-12-02T10:06:20.668Z,84.38
2022-12-02T10:07:20.660Z,84.38
2022-12-02T10:08:20.634Z,78.75
2022-12-02T10:09:20.616Z,78.75
2022-12-02T10:10:20.613Z,73.12
2022-12-02T10:11:20.610Z,78.75
2022-12-02T10:12:20.619Z,78.75
2022-12-02T10:13:20.593Z,78.75
2022-12-02T10:14:20.588Z,73.12
2022-12-02T10:15:20.560Z,73.12
2022-12-02T10:16:20.608Z,73.12
2022-12-02T10:17:20.535Z,73.12
2022-12-02T10:18:20.519Z,73.12
2022-12-02T10:19:20.527Z,73.12
2022-12-02T10:20:20.523Z,73.12
2022-12-02T10:21:20.484Z,73.12
2022-12-02T10:22:20.511Z,73.12
2022-12-02T10:23:20.488Z,73.12
2022-12-02T10:24:20.458Z,73.12
2022-12-02T10:25:20.438Z,73.12
2022-12-02T10:26:20.435Z,73.12
2022-12-02T10:27:20.422Z,73.12
2022-12-02T10:28:20.424Z,73.12
2022-12-02T10:29:20.402Z,67.50
2022-12-02T10:30:20.430Z,67.50
2022-12-02T10:31:20.448Z,67.50
2022-12-02T10:32:20.388Z,73.12
2022-12-02T10:33:20.350Z,73.12
2022-12-02T10:34:20.359Z,73.12
2022-12-02T10:35:20.335Z,73.12
2022-12-02T10:36:20.325Z,73.12
2022-12-02T10:37:20.305Z,73.12
2022-12-02T10:38:20.313Z,78.75
2022-12-02T10:39:20.302Z,73.12
2022-12-02T10:40:20.284Z,73.12
2022-12-02T10:41:20.260Z,73.12
2022-12-02T10:42:20.251Z,73.12
2022-12-02T10:43:20.242Z,73.12
2022-12-02T10:44:20.250Z,73.12
2022-12-02T10:45:20.237Z,73.12
2022-12-02T10:46:20.280Z,73.12
2022-12-02T10:47:25.793Z,73.12
2022-12-02T10:48:20.181Z,73.12
2022-12-02T10:49:20.204Z,73.12
2022-12-02T10:50:20.165Z,78.75
2022-12-02T10:51:20.168Z,78.75
2022-12-02T10:52:20.136Z,73.12
2022-12-02T10:53:20.162Z,73.12
2022-12-02T10:54:20.148Z,73.12
2022-12-02T10:55:20.122Z,73.12
2022-12-02T10:56:20.125Z,67.50
2022-12-02T10:57:20.076Z,73.12
2022-12-02T10:58:20.100Z,78.75
2022-12-02T10:59:20.081Z,78.75
2022-12-02T11:00:20.051Z,78.75
2022-12-02T11:01:20.092Z,73.12
2022-12-02T11:02:20.117Z,67.50
2022-12-02T11:03:20.069Z,67.50
2022-12-02T11:04:20.007Z,67.50
2022-12-02T11:05:19.990Z,67.50
2022-12-02T11:06:19.984Z,67.50
2022-12-02T11:07:19.994Z,61.88
2022-12-02T11:08:20.222Z,61.88
2022-12-02T11:09:39.791Z,50.62
2022-12-02T11:10:20.959Z,50.62
2022-12-02T11:11:19.926Z,50.62
2022-12-02T11:12:19.915Z,50.62
2022-12-02T11:13:19.923Z,56.25
2022-12-02T11:14:19.899Z,50.62
2022-12-02T11:15:19.883Z,45.00
2022-12-02T11:16:19.913Z,45.00
2022-12-02T11:17:19.874Z,45.00
2022-12-02T11:18:19.853Z,50.62
2022-12-02T11:19:19.837Z,50.62
2022-12-02T11:20:19.851Z,50.62
2022-12-02T11:21:19.813Z,50.62
2022-12-02T11:22:19.824Z,50.62
2022-12-02T11:23:19.807Z,50.62
2022-12-02T11:24:19.779Z,56.25
2022-12-02T11:25:19.774Z,61.88
2022-12-02T11:26:19.776Z,61.88
2022-12-02T11:27:19.765Z,61.88
2022-12-02T11:28:19.738Z,61.88
2022-12-02T11:29:19.744Z,61.88
2022-12-02T11:30:19.718Z,61.88
2022-12-02T11:31:19.832Z,61.88
2022-12-02T11:32:19.703Z,61.88
2022-12-02T11:33:19.678Z,61.88
2022-12-02T11:34:19.668Z,61.88
2022-12-02T11:35:20.025Z,61.88
2022-12-02T11:36:19.665Z,56.25
2022-12-02T11:37:19.648Z,56.25
2022-12-02T11:38:19.659Z,56.25
2022-12-02T11:39:19.658Z,56.25
2022-12-02T11:40:19.619Z,56.25
2022-12-02T11:41:19.621Z,61.88
2022-12-02T11:42:19.605Z,67.50
2022-12-02T11:43:19.575Z,67.50
2022-12-02T11:44:19.555Z,67.50
2022-12-02T11:45:19.555Z,61.88
2022-12-02T11:46:19.553Z,61.88
2022-12-02T11:47:19.548Z,61.88
2022-12-02T11:48:19.521Z,61.88
2022-12-02T11:49:19.524Z,56.25
2022-12-02T11:50:19.487Z,56.25
2022-12-02T11:51:19.476Z,56.25
2022-12-02T11:52:19.470Z,56.25
2022-12-02T11:53:19.453Z,61.88
2022-12-02T11:54:19.469Z,73.12
2022-12-02T11:55:19.432Z,73.12
2022-12-02T11:56:19.418Z,73.12
2022-12-02T11:57:19.446Z,73.12
2022-12-02T11:58:19.436Z,84.38
2022-12-02T11:59:19.618Z,90.00
2022-12-02T12:00:19.410Z,95.62
2022-12-02T12:01:19.372Z,90.00
2022-12-02T12:02:19.457Z,95.62
2022-12-02T12:03:19.496Z,101.25
2022-12-02T12:04:19.332Z,101.25
2022-12-02T12:05:19.330Z,101.25
2022-12-02T12:06:19.311Z,101.25
2022-12-02T12:07:19.324Z,101.25
2022-12-02T12:08:19.390Z,101.25
2022-12-02T12:09:19.301Z,101.25
2022-12-02T12:10:19.288Z,106.88
2022-12-02T12:11:19.260Z,106.88
2022-12-02T12:12:19.245Z,101.25
2022-12-02T12:13:19.247Z,95.62
2022-12-02T12:14:19.259Z,95.62
2022-12-02T12:15:19.209Z,90.00
2022-12-02T12:16:19.259Z,84.38
2022-12-02T12:27:52.739Z,84.38
2022-12-02T12:28:52.711Z,84.38
2022-12-02T12:29:52.709Z,90.00
2022-12-02T12:30:52.772Z,90.00
2022-12-02T12:31:52.683Z,90.00
2022-12-02T12:32:52.651Z,84.38
2022-12-02T12:33:52.650Z,84.38
2022-12-02T12:34:53.011Z,84.38
2022-12-02T12:35:59.765Z,78.75
2022-12-02T12:36:52.663Z,78.75
2022-12-02T12:37:52.619Z,84.38
2022-12-02T12:38:52.576Z,84.38
2022-12-02T12:39:52.568Z,84.38
2022-12-02T12:40:52.559Z,90.00
2022-12-02T12:42:01.706Z,90.00
2022-12-02T12:42:52.532Z,84.38
2022-12-02T12:43:52.524Z,84.38
2022-12-02T12:44:52.952Z,84.38
2022-12-02T12:45:52.628Z,84.38
2022-12-02T12:46:52.552Z,84.38
2022-12-02T12:47:52.472Z,84.38
2022-12-02T12:48:52.499Z,84.38
2022-12-02T12:49:52.529Z,84.38
2022-12-02T12:50:52.451Z,84.38
2022-12-02T12:51:52.432Z,78.75
2022-12-02T12:52:52.426Z,78.75
2022-12-02T12:53:52.411Z,78.75
2022-12-02T12:54:52.719Z,78.75
2022-12-02T12:55:56.408Z,78.75
2022-12-02T12:56:53.381Z,78.75
2022-12-02T12:57:52.370Z,78.75
2022-12-02T12:58:52.376Z,78.75
2022-12-02T12:59:52.604Z,78.75
2022-12-02T13:00:52.354Z,78.75
2022-12-02T13:01:52.510Z,84.38
2022-12-02T13:02:52.420Z,78.75
2022-12-02T13:03:52.337Z,78.75
2022-12-02T13:04:52.496Z,78.75
2022-12-02T13:05:52.275Z,84.38
2022-12-02T13:06:52.293Z,84.38
2022-12-02T13:07:52.319Z,84.38
2022-12-02T13:08:52.265Z,84.38
2022-12-02T13:09:52.522Z,84.38
2022-12-02T13:10:52.233Z,84.38
2022-12-02T13:11:52.234Z,84.38
2022-12-02T13:12:52.245Z,84.38
2022-12-02T13:13:52.190Z,84.38
2022-12-02T13:14:52.321Z,84.38
2022-12-02T13:15:52.165Z,84.38
2022-12-02T13:16:52.246Z,78.75
2022-12-02T13:17:52.173Z,78.75
2022-12-02T13:18:52.154Z,73.12
2022-12-02T13:19:52.120Z,67.50
2022-12-02T13:20:52.107Z,67.50
2022-12-02T13:21:52.094Z,67.50
2022-12-02T13:22:52.087Z,73.12
2022-12-02T13:23:52.108Z,73.12
2022-12-02T13:24:52.069Z,67.50
2022-12-02T13:25:52.073Z,67.50
2022-12-02T13:26:52.045Z,73.12
2022-12-02T13:27:52.037Z,73.12
2022-12-02T13:28:52.023Z,67.50